Time;durP1;ratioP1;P1;durP2;ratioP2;P2;SDS_P1;SDS_P2;PMS_P1;PMS_P2;Temp;Humidity;BMP_temperature;BMP_pressure;BME280_temperature;BME280_humidity;BME280_pressure;Samples;Min_cycle;Max_cycle;Signal;HPM_P1;HPM_P2
2023/01/06 00:01:32;;;;;;;40.70;12.10;;;;;;;;;;4973306;28;20435;-76
2023/01/06 00:04:02;;;;;;;38.08;12.10;;;;;;;;;;4989551;28;20434;-76
2023/01/06 00:06:29;;;;;;;36.78;12.30;;;;;;;;;;5035400;28;20414;-76
2023/01/06 00:08:57;;;;;;;36.87;12.20;;;10.80;99.90;;;;;;4998127;28;20835;-76
2023/01/06 00:11:24;;;;;;;35.53;11.17;;;10.60;99.90;;;;;;5000607;28;20430;-76
2023/01/06 00:13:50;;;;;;;38.93;11.40;;;;;;;;;;5039358;28;20452;-76
2023/01/06 00:16:19;;;;;;;36.67;11.38;;;10.80;99.90;;;;;;4993696;28;20458;-75
2023/01/06 00:18:45;;;;;;;36.20;11.97;;;;;;;;;;5021111;28;20424;-76
2023/01/06 00:21:12;;;;;;;39.08;12.60;;;10.60;99.90;;;;;;4992181;28;20444;-76
2023/01/06 00:23:39;;;;;;;33.28;11.38;;;;;;;;;;5008289;28;20458;-75
2023/01/06 00:26:06;;;;;;;38.80;11.98;;;;;;;;;;4984631;28;20421;-76
2023/01/06 00:28:32;;;;;;;33.10;10.90;;;;;;;;;;5030680;28;20451;-76
2023/01/06 00:30:58;;;;;;;28.17;10.40;;;;;;;;;;5005784;28;20424;-76
2023/01/06 00:33:25;;;;;;;31.63;10.70;;;;;;;;;;4988192;28;20938;-76
2023/01/06 00:35:51;;;;;;;31.95;10.43;;;;;;;;;;4961496;28;20787;-76
2023/01/06 00:38:17;;;;;;;26.77;10.35;;;;;;;;;;5033740;28;20422;-80
2023/01/06 00:40:43;;;;;;;29.50;9.85;;;;;;;;;;5029830;28;20449;-80
2023/01/06 00:43:09;;;;;;;28.27;10.02;;;;;;;;;;5021935;28;20425;-80
2023/01/06 00:45:35;;;;;;;27.95;9.73;;;;;;;;;;5018838;28;20471;-80
2023/01/06 00:48:01;;;;;;;26.42;9.45;;;;;;;;;;5051209;28;20424;-76
2023/01/06 00:50:27;;;;;;;22.33;9.05;;;;;;;;;;4966734;28;20988;-76
2023/01/06 00:52:53;;;;;;;28.65;9.75;;;;;;;;;;4985043;28;20435;-76
2023/01/06 00:55:19;;;;;;;19.48;8.50;;;;;;;;;;4992917;28;20448;-76
2023/01/06 00:57:46;;;;;;;20.63;7.63;;;;;;;;;;4972682;28;20448;-76
2023/01/06 01:00:12;;;;;;;18.60;7.27;;;;;;;;;;4992988;28;20531;-76
2023/01/06 01:02:38;;;;;;;19.05;7.00;;;;;;;;;;5037370;28;20490;-75
2023/01/06 01:05:04;;;;;;;11.73;5.35;;;;;;;;;;5019277;28;20428;-76
2023/01/06 01:07:30;;;;;;;15.27;4.95;;;;;;;;;;4965333;28;20414;-80
2023/01/06 01:09:56;;;;;;;14.18;4.70;;;;;;;;;;4975246;28;20745;-79
2023/01/06 01:12:22;;;;;;;12.73;4.40;;;;;;;;;;4970308;28;20483;-80
2023/01/06 01:14:53;;;;;;;14.55;4.88;;;10.90;99.90;;;;;;4972097;28;20419;-80
2023/01/06 01:17:24;;;;;;;14.55;4.13;;;;;;;;;;5010645;28;20450;-80
2023/01/06 01:19:53;;;;;;;15.07;4.70;;;;;;;;;;4983828;28;20897;-80
2023/01/06 01:22:19;;;;;;;14.23;4.73;;;10.70;99.90;;;;;;4981263;28;20428;-80
2023/01/06 01:24:47;;;;;;;14.50;5.03;;;;;;;;;;4993216;28;20420;-80
2023/01/06 01:27:14;;;;;;;11.15;4.50;;;;;;;;;;4984118;28;20423;-80
2023/01/06 01:29:40;;;;;;;11.68;4.78;;;;;;;;;;5071030;28;20473;-80
2023/01/06 01:32:06;;;;;;;12.48;4.88;;;;;;;;;;5087001;28;20418;-80
2023/01/06 01:34:32;;;;;;;13.82;5.78;;;;;;;;;;5002035;28;20929;-80
2023/01/06 01:36:58;;;;;;;15.23;5.50;;;;;;;;;;5005021;28;20413;-80
2023/01/06 01:39:25;;;;;;;14.00;5.70;;;;;;;;;;5072143;28;20444;-80
2023/01/06 01:41:52;;;;;;;15.52;6.10;;;;;;;;;;5032129;28;20493;-80
2023/01/06 01:44:54;;;;;;;14.00;6.22;;;10.60;99.90;;;;;;5071283;28;20445;-80
2023/01/06 01:47:39;;;;;;;17.60;6.47;;;10.60;99.90;;;;;;5005920;28;20470;-80
2023/01/06 01:50:10;;;;;;;14.50;6.22;;;;;;;;;;5038367;28;20912;-80
2023/01/06 01:52:36;;;;;;;13.33;7.20;;;;;;;;;;5091545;28;20402;-80
2023/01/06 01:55:02;;;;;;;14.50;6.53;;;;;;;;;;4992146;28;20489;-79
2023/01/06 01:57:32;;;;;;;15.13;6.67;;;;;;;;;;4988267;28;20478;-79
2023/01/06 01:59:58;;;;;;;14.98;6.90;;;;;;;;;;5044246;28;20418;-79
2023/01/06 02:02:26;;;;;;;13.90;6.65;;;;;;;;;;5091670;28;20394;-79
2023/01/06 02:04:53;;;;;;;16.30;6.70;;;10.60;99.90;;;;;;4995278;28;20427;-79
2023/01/06 02:07:21;;;;;;;17.50;7.50;;;;;;;;;;4994924;28;20800;-80
2023/01/06 02:10:16;;;;;;;16.25;7.10;;;10.70;99.90;;;;;;4988941;28;20548;-80
2023/01/06 02:12:42;;;;;;;12.97;6.40;;;;;;;;;;4975720;28;20465;-80
2023/01/06 02:15:15;;;;;;;16.63;6.90;;;;;;;;;;4998636;28;20406;-80
2023/01/06 02:17:58;;;;;;;13.57;6.87;;;10.40;99.90;;;;;;5014371;28;20484;-80
2023/01/06 02:20:56;;;;;;;13.82;6.00;;;10.80;99.90;;;;;;4979201;28;20475;-80
2023/01/06 02:23:22;;;;;;;13.90;5.93;;;;;;;;;;5050851;28;20513;-79
2023/01/06 02:26:07;;;;;;;13.82;6.10;;;;;;;;;;4978848;28;20441;-79
2023/01/06 02:29:17;;;;;;;14.32;6.00;;;10.70;99.90;;;;;;4978920;28;20424;-80
2023/01/06 02:31:56;;;;;;;12.35;5.55;;;;;;;;;;4985886;28;20513;-80
2023/01/06 02:34:40;;;;;;;11.00;5.30;;;;;;;;;;4967558;28;20518;-80
2023/01/06 02:37:37;;;;;;;14.32;5.40;;;10.60;99.90;;;;;;4989271;28;20989;-80
2023/01/06 02:40:15;;;;;;;10.10;5.45;;;;;;;;;;4988632;28;20443;-79
2023/01/06 02:42:57;;;;;;;13.43;5.50;;;;;;;;;;4988137;28;21940;-79
2023/01/06 02:45:30;;;;;;;12.75;5.63;;;;;;;;;;5023548;28;20774;-80
2023/01/06 02:48:01;;;;;;;13.82;4.90;;;;;;;;;;4970892;28;20931;-80
2023/01/06 02:51:00;;;;;;;10.63;5.00;;;10.60;99.90;;;;;;4969377;28;20436;-80
2023/01/06 02:53:57;;;;;;;16.33;5.00;;;10.10;99.90;;;;;;5025483;28;20432;-80
2023/01/06 02:56:25;;;;;;;10.67;4.63;;;;;;;;;;4980169;28;20461;-80
2023/01/06 02:59:06;;;;;;;12.45;5.03;;;10.40;99.90;;;;;;4979605;28;20509;-80
2023/01/06 03:01:44;;;;;;;9.60;4.70;;;;;;;;;;4968807;28;20447;-80
2023/01/06 03:04:13;;;;;;;9.90;4.85;;;;;;;;;;4970659;28;20416;-80
2023/01/06 03:06:43;;;;;;;12.68;5.22;;;10.40;99.90;;;;;;4977973;28;20440;-80
2023/01/06 03:09:14;;;;;;;9.00;4.80;;;10.30;99.90;;;;;;4971153;28;20434;-77
2023/01/06 03:11:43;;;;;;;9.68;4.85;;;;;;;;;;4986717;28;20902;-76
2023/01/06 03:14:14;;;;;;;10.13;5.10;;;;;;;;;;5001164;28;20515;-76
2023/01/06 03:16:45;;;;;;;13.20;5.03;;;;;;;;;;4997529;28;20782;-76
2023/01/06 03:19:12;;;;;;;9.05;5.20;;;;;;;;;;4986843;28;20430;-76
2023/01/06 03:21:40;;;;;;;10.05;4.80;;;;;;;;;;4955897;28;20524;-76
2023/01/06 03:24:08;;;;;;;9.98;5.00;;;;;;;;;;4990679;28;20464;-76
2023/01/06 03:26:34;;;;;;;12.25;5.50;;;;;;;;;;5065416;28;20417;-76
2023/01/06 03:29:01;;;;;;;10.10;5.32;;;;;;;;;;5004968;28;20475;-76
2023/01/06 03:31:46;;;;;;;10.68;5.32;;;;;;;;;;5033410;28;20446;-76
2023/01/06 03:34:17;;;;;;;10.50;5.88;;;;;;;;;;4989437;28;20426;-76
2023/01/06 03:37:09;;;;;;;12.50;6.15;;;10.10;99.90;;;;;;5077424;28;20875;-76
2023/01/06 03:39:44;;;;;;;11.35;6.43;;;;;;;;;;5093940;28;20414;-76
2023/01/06 03:45:37;;;;;;;10.32;6.65;;;;;;;;;;5011507;28;20438;-80
2023/01/06 03:48:10;;;;;;;10.98;7.10;;;;;;;;;;5002092;28;20419;-80
2023/01/06 03:50:39;;;;;;;11.38;7.30;;;;;;;;;;4971566;28;20416;-80
2023/01/06 03:53:18;;;;;;;13.43;8.05;;;10.50;99.90;;;;;;4970174;28;20495;-80
2023/01/06 03:55:49;;;;;;;12.03;7.90;;;;;;;;;;4989933;28;20845;-80
2023/01/06 03:58:16;;;;;;;13.68;8.27;;;10.50;99.90;;;;;;4996460;28;20431;-80
2023/01/06 04:00:43;;;;;;;12.82;8.07;;;;;;;;;;5059375;28;20506;-80
2023/01/06 04:03:11;;;;;;;12.90;7.97;;;;;;;;;;4955923;28;20451;-80
2023/01/06 04:05:37;;;;;;;12.65;8.15;;;;;;;;;;5013490;28;20427;-80
2023/01/06 04:08:03;;;;;;;12.80;8.32;;;;;;;;;;5070183;28;20445;-80
2023/01/06 04:10:29;;;;;;;12.07;7.57;;;;;;;;;;5017371;28;20438;-76
2023/01/06 04:12:55;;;;;;;10.73;6.88;;;;;;;;;;5063720;28;20504;-76
2023/01/06 04:15:22;;;;;;;10.73;7.20;;;;;;;;;;4981255;28;20464;-75
2023/01/06 04:17:48;;;;;;;11.05;6.78;;;;;;;;;;4958669;28;20418;-76
2023/01/06 04:20:16;;;;;;;10.00;6.23;;;;;;;;;;4990475;28;21005;-76
2023/01/06 04:22:42;;;;;;;10.75;6.20;;;;;;;;;;5028100;28;20418;-76
2023/01/06 04:25:09;;;;;;;11.20;5.72;;;;;;;;;;5004929;28;20421;-75
2023/01/06 04:27:35;;;;;;;10.63;5.78;;;;;;;;;;5081146;28;20904;-76
2023/01/06 04:30:01;;;;;;;8.98;5.40;;;;;;;;;;4988293;28;20794;-76
2023/01/06 04:32:27;;;;;;;8.88;5.55;;;;;;;;;;4995781;28;20425;-75
2023/01/06 04:34:53;;;;;;;9.65;5.50;;;;;;;;;;4993629;28;20450;-80
2023/01/06 04:37:19;;;;;;;9.25;4.82;;;;;;;;;;5048088;28;20451;-80
2023/01/06 04:39:49;;;;;;;7.22;4.82;;;;;;;;;;4938252;28;20451;-79
2023/01/06 04:42:15;;;;;;;7.80;4.80;;;;;;;;;;5009400;28;21292;-80
2023/01/06 04:44:41;;;;;;;8.02;4.80;;;;;;;;;;4970447;28;20859;-76
2023/01/06 04:47:08;;;;;;;8.38;4.57;;;;;;;;;;5071201;28;20425;-76
2023/01/06 04:49:34;;;;;;;8.68;4.80;;;;;;;;;;4986530;28;20492;-76
2023/01/06 04:52:00;;;;;;;7.50;4.25;;;;;;;;;;5003090;28;20982;-76
2023/01/06 04:54:26;;;;;;;9.00;4.28;;;;;;;;;;5047717;28;20424;-76
2023/01/06 04:56:53;;;;;;;6.22;4.00;;;;;;;;;;5007610;28;20424;-79
2023/01/06 04:59:19;;;;;;;6.18;3.75;;;;;;;;;;5002048;28;20472;-79
2023/01/06 05:01:48;;;;;;;7.60;4.32;;;;;;;;;;5035540;28;20790;-79
2023/01/06 05:04:14;;;;;;;8.40;4.22;;;;;;;;;;4973276;28;20419;-79
2023/01/06 05:06:40;;;;;;;8.40;3.60;;;;;;;;;;4986307;28;20516;-80
2023/01/06 05:09:07;;;;;;;7.07;3.88;;;;;;;;;;5000860;28;20432;-80
2023/01/06 05:11:33;;;;;;;5.97;3.58;;;;;;;;;;4970539;28;20434;-79
2023/01/06 05:13:59;;;;;;;7.00;3.53;;;;;;;;;;5008627;28;20420;-80
2023/01/06 05:16:30;;;;;;;7.57;3.65;;;10.80;99.90;;;;;;4969282;28;20438;-80
2023/01/06 05:18:57;;;;;;;7.90;3.70;;;;;;;;;;4988797;28;20466;-80
2023/01/06 05:21:23;;;;;;;6.80;4.20;;;;;;;;;;4988956;28;20938;-79
2023/01/06 05:23:50;;;;;;;7.47;4.45;;;;;;;;;;5009360;28;20430;-79
2023/01/06 05:26:18;;;;;;;8.20;4.80;;;;;;;;;;4989075;28;20519;-76
2023/01/06 05:28:44;;;;;;;7.95;4.82;;;;;;;;;;4994602;28;20430;-76
2023/01/06 05:31:10;;;;;;;8.73;5.32;;;;;;;;;;4990214;28;20951;-76
2023/01/06 05:33:37;;;;;;;9.20;5.90;;;;;;;;;;4988852;28;21036;-75
2023/01/06 05:36:04;;;;;;;8.68;5.57;;;;;;;;;;5007252;28;20435;-76
2023/01/06 05:38:30;;;;;;;11.45;6.30;;;;;;;;;;4984255;28;20501;-76
2023/01/06 05:40:57;;;;;;;8.40;6.20;;;;;;;;;;4969697;28;20432;-76
2023/01/06 05:43:23;;;;;;;9.40;7.05;;;;;;;;;;5047184;28;20529;-76
2023/01/06 05:45:49;;;;;;;11.95;7.10;;;;;;;;;;5045796;28;20425;-76
2023/01/06 05:48:16;;;;;;;11.43;7.68;;;;;;;;;;5044148;28;20423;-76
2023/01/06 05:50:42;;;;;;;10.77;8.20;;;;;;;;;;5023506;28;20413;-76
2023/01/06 05:53:08;;;;;;;12.10;8.70;;;;;;;;;;5037636;28;20424;-75
2023/01/06 05:55:34;;;;;;;12.48;8.73;;;;;;;;;;4953086;28;20428;-76
2023/01/06 05:58:00;;;;;;;11.23;8.25;;;;;;;;;;4969176;28;20546;-80
2023/01/06 06:00:26;;;;;;;9.90;7.75;;;;;;;;;;4964475;28;20446;-79
2023/01/06 06:02:52;;;;;;;11.32;8.60;;;;;;;;;;4960535;28;20412;-80
2023/01/06 06:05:18;;;;;;;11.85;7.95;;;;;;;;;;4954222;28;20409;-80
2023/01/06 06:07:45;;;;;;;13.43;8.70;;;;;;;;;;4972986;28;20883;-80
2023/01/06 06:10:11;;;;;;;12.20;8.20;;;;;;;;;;4964098;28;20452;-80
2023/01/06 06:12:37;;;;;;;11.10;7.72;;;;;;;;;;5012639;28;20441;-80
2023/01/06 06:15:03;;;;;;;10.82;8.30;;;;;;;;;;5031730;28;20418;-80
2023/01/06 06:17:30;;;;;;;13.98;7.85;;;9.90;99.90;;;;;;4997631;28;20420;-80
2023/01/06 06:19:56;;;;;;;11.98;7.88;;;;;;;;;;4968783;28;20428;-80
2023/01/06 06:22:22;;;;;;;10.15;7.25;;;;;;;;;;4996166;28;20420;-80
2023/01/06 06:24:48;;;;;;;11.90;8.20;;;;;;;;;;4971587;28;21013;-80
2023/01/06 06:27:14;;;;;;;11.88;8.48;;;;;;;;;;5009664;28;20909;-81
2023/01/06 06:29:40;;;;;;;14.32;7.80;;;;;;;;;;5030452;28;20500;-81
2023/01/06 06:32:06;;;;;;;13.88;8.50;;;;;;;;;;5002545;28;20449;-80
2023/01/06 06:34:32;;;;;;;12.73;8.13;;;;;;;;;;4988925;28;20399;-76
2023/01/06 06:36:58;;;;;;;10.27;7.90;;;;;;;;;;4951585;28;20456;-76
2023/01/06 06:39:24;;;;;;;12.73;8.63;;;;;;;;;;4959320;28;20427;-75
2023/01/06 06:41:50;;;;;;;14.90;9.02;;;;;;;;;;4999487;28;20467;-76
2023/01/06 06:44:17;;;;;;;28.33;10.00;;;;;;;;;;4990160;28;20438;-76
2023/01/06 06:46:43;;;;;;;13.52;9.20;;;;;;;;;;4970017;28;20907;-82
2023/01/06 06:49:09;;;;;;;17.92;10.15;;;;;;;;;;4983197;28;20438;-80
2023/01/06 06:51:35;;;;;;;11.60;9.13;;;;;;;;;;4969933;28;20440;-80
2023/01/06 06:54:01;;;;;;;17.25;9.25;;;;;;;;;;4988031;28;20414;-81
2023/01/06 06:56:27;;;;;;;17.20;9.50;;;;;;;;;;4972248;28;20406;-80
2023/01/06 06:58:53;;;;;;;11.18;8.43;;;;;;;;;;4977266;28;20435;-81
2023/01/06 07:01:20;;;;;;;14.13;8.90;;;;;;;;;;4972825;28;20527;-81
2023/01/06 07:03:47;;;;;;;12.68;8.25;;;;;;;;;;5043338;28;20410;-81
2023/01/06 07:06:17;;;;;;;12.35;8.25;;;;;;;;;;5092258;28;20389;-81
2023/01/06 07:08:44;;;;;;;12.80;7.72;;;10.00;99.90;;;;;;4968779;28;20796;-81
2023/01/06 07:11:10;;;;;;;14.73;8.75;;;;;;;;;;4968442;28;20435;-81
2023/01/06 07:13:36;;;;;;;9.70;7.10;;;;;;;;;;5040938;28;20417;-80
2023/01/06 07:16:02;;;;;;;8.65;6.50;;;;;;;;;;5016087;28;20460;-81
2023/01/06 07:18:28;;;;;;;8.73;6.37;;;;;;;;;;5028915;28;20902;-80
2023/01/06 07:20:54;;;;;;;10.00;6.47;;;;;;;;;;5095185;28;20778;-80
2023/01/06 07:23:21;;;;;;;6.63;5.63;;;;;;;;;;4977475;28;20463;-79
2023/01/06 07:25:55;;;;;;;6.82;5.35;;;10.50;99.90;;;;;;4998485;28;20479;-79
2023/01/06 07:28:22;;;;;;;7.15;5.57;;;;;;;;;;4978449;28;20919;-78
2023/01/06 07:30:48;;;;;;;7.40;4.88;;;;;;;;;;4990787;28;20978;-79
2023/01/06 07:33:14;;;;;;;7.03;4.38;;;;;;;;;;4975530;28;20410;-79
2023/01/06 07:35:42;;;;;;;7.60;4.00;;;;;;;;;;4988611;28;20480;-79
2023/01/06 07:38:09;;;;;;;7.18;3.80;;;;;;;;;;4956305;28;20889;-79
2023/01/06 07:40:35;;;;;;;7.38;3.83;;;;;;;;;;4982734;28;20467;-79
2023/01/06 07:43:05;;;;;;;6.50;3.63;;;;;;;;;;4990768;28;20463;-79
2023/01/06 07:45:31;;;;;;;7.15;3.40;;;;;;;;;;5032216;28;20422;-79
2023/01/06 07:47:57;;;;;;;7.35;2.90;;;;;;;;;;4979959;28;20814;-79
2023/01/06 07:50:23;;;;;;;5.97;2.50;;;;;;;;;;4972334;28;20409;-80
2023/01/06 07:52:49;;;;;;;4.95;2.00;;;;;;;;;;4981681;28;20426;-79
2023/01/06 07:55:15;;;;;;;5.77;2.20;;;;;;;;;;5065763;28;20418;-79
2023/01/06 07:57:41;;;;;;;6.63;2.33;;;;;;;;;;5036084;28;20452;-79
2023/01/06 08:00:07;;;;;;;7.20;1.95;;;;;;;;;;4992395;28;20499;-79
2023/01/06 08:02:33;;;;;;;5.93;1.70;;;;;;;;;;4991306;28;20438;-79
2023/01/06 08:04:59;;;;;;;5.68;1.60;;;;;;;;;;5001302;28;20467;-81
2023/01/06 08:07:26;;;;;;;5.63;1.50;;;;;;;;;;4958123;28;20512;-80
2023/01/06 08:09:52;;;;;;;5.55;1.25;;;;;;;;;;4956370;28;20453;-81
2023/01/06 08:12:18;;;;;;;5.30;1.30;;;;;;;;;;4971730;28;20753;-80
2023/01/06 08:14:44;;;;;;;7.30;1.45;;;;;;;;;;4977031;28;20430;-80
2023/01/06 08:17:10;;;;;;;3.90;1.05;;;;;;;;;;4977622;28;20517;-82
2023/01/06 08:19:36;;;;;;;6.70;1.55;;;;;;;;;;4965446;28;20425;-81
2023/01/06 08:22:02;;;;;;;6.88;1.60;;;;;;;;;;4981134;28;20975;-81
2023/01/06 08:24:31;;;;;;;7.53;1.30;;;;;;;;;;4987824;28;20423;-81
2023/01/06 08:26:57;;;;;;;8.52;1.40;;;;;;;;;;4998572;28;20502;-81
2023/01/06 08:29:24;;;;;;;7.47;1.73;;;;;;;;;;4976795;28;20432;-76
2023/01/06 08:31:50;;;;;;;9.68;1.60;;;;;;;;;;5008465;28;20432;-76
2023/01/06 08:34:16;;;;;;;8.13;1.50;;;;;;;;;;4998085;28;20463;-76
2023/01/06 08:36:43;;;;;;;9.07;1.50;;;;;;;;;;4957132;28;20428;-76
2023/01/06 08:39:10;;;;;;;10.82;2.20;;;;;;;;;;4989396;28;20438;-81
2023/01/06 08:41:36;;;;;;;9.05;1.73;;;;;;;;;;4990032;28;20439;-77
2023/01/06 08:44:03;;;;;;;10.05;2.15;;;;;;;;;;4988450;28;20944;-76
2023/01/06 08:46:29;;;;;;;8.15;1.50;;;;;;;;;;5043495;28;20941;-81
2023/01/06 08:48:56;;;;;;;8.00;1.60;;;;;;;;;;4988036;28;20430;-80
2023/01/06 08:51:23;;;;;;;11.80;1.63;;;8.70;99.90;;;;;;4992492;28;20453;-81
2023/01/06 08:53:50;;;;;;;10.18;1.67;;;;;;;;;;5009941;28;20877;-80
2023/01/06 08:56:18;;;;;;;8.60;1.50;;;;;;;;;;4992106;28;20774;-81
2023/01/06 08:58:44;;;;;;;8.17;1.80;;;;;;;;;;5036277;28;20510;-81
2023/01/06 09:01:20;;;;;;;9.32;2.45;;;;;;;;;;4990592;28;20423;-81
2023/01/06 09:03:47;;;;;;;8.07;1.60;;;;;;;;;;4994963;28;20411;-81
2023/01/06 09:06:13;;;;;;;8.50;2.00;;;;;;;;;;4967004;28;20447;-81
2023/01/06 09:08:39;;;;;;;10.27;2.17;;;;;;;;;;4967175;28;20430;-81
2023/01/06 09:11:06;;;;;;;8.57;1.80;;;;;;;;;;4978240;28;20429;-81
2023/01/06 09:13:32;;;;;;;9.65;2.00;;;;;;;;;;5002641;28;20934;-81
2023/01/06 09:15:58;;;;;;;11.83;2.50;;;;;;;;;;4973186;28;20987;-80
2023/01/06 09:18:24;;;;;;;14.77;2.50;;;;;;;;;;4997782;28;20452;-80
2023/01/06 09:20:50;;;;;;;14.00;2.28;;;;;;;;;;5006567;28;20524;-80
2023/01/06 09:23:16;;;;;;;10.70;2.50;;;;;;;;;;5092872;28;20921;-80
2023/01/06 09:25:42;;;;;;;11.60;2.40;;;;;;;;;;5034572;28;20508;-81
2023/01/06 09:28:09;;;;;;;16.10;2.80;;;;;;;;;;4973429;28;20428;-80
2023/01/06 09:30:35;;;;;;;11.85;2.40;;;;;;;;;;4965205;28;20426;-81
2023/01/06 09:33:01;;;;;;;13.38;2.67;;;;;;;;;;5003375;28;20835;-80
2023/01/06 09:35:27;;;;;;;14.63;2.60;;;;;;;;;;4969300;28;20501;-80
2023/01/06 09:37:54;;;;;;;12.45;2.67;;;;;;;;;;4976262;28;20453;-81
2023/01/06 09:40:23;;;;;;;14.98;2.17;;;;;;;;;;4993355;28;20947;-81
2023/01/06 09:43:16;;;;;;;12.90;2.45;;;9.00;99.90;;;;;;5000355;28;20916;-80
2023/01/06 09:45:47;;;;;;;13.27;2.47;;;;;;;;;;4978682;28;20438;-81
2023/01/06 09:48:17;;;;;;;13.23;2.33;;;;;;;;;;4970485;28;20420;-83
2023/01/06 09:50:48;;;;;;;11.27;2.20;;;;;;;;;;4999532;28;20415;-83
2023/01/06 09:53:21;;;;;;;9.35;1.90;;;9.40;99.90;;;;;;5021598;28;20799;-82
2023/01/06 09:55:56;;;;;;;11.23;2.08;;;;;;;;;;4998382;28;20462;-80
2023/01/06 09:58:28;;;;;;;11.10;2.20;;;9.70;99.90;;;;;;4977476;28;20755;-81
2023/01/06 10:00:59;;;;;;;11.30;2.25;;;9.70;99.90;;;;;;4989542;28;20473;-82
2023/01/06 10:03:26;;;;;;;12.25;1.83;;;;;;;;;;4983459;28;20454;-81
2023/01/06 10:05:55;;;;;;;10.60;2.15;;;;;;;;;;4981118;28;20438;-81
2023/01/06 10:08:26;;;;;;;11.30;2.15;;;;;;;;;;4978378;28;20419;-81
2023/01/06 10:11:11;;;;;;;9.32;1.65;;;;;;;;;;4972284;28;20921;-82
2023/01/06 10:13:50;;;;;;;14.02;1.92;;;;;;;;;;4993143;28;20501;-81
2023/01/06 10:16:32;;;;;;;12.18;1.80;;;;;;;;;;5040797;28;20413;-82
2023/01/06 10:19:04;;;;;;;9.35;1.80;;;;;;;;;;4977405;28;20453;-82
2023/01/06 10:21:44;;;;;;;12.60;2.17;;;;;;;;;;4977036;28;20436;-82
2023/01/06 10:24:28;;;;;;;11.60;2.03;;;;;;;;;;4958749;28;20521;-81
2023/01/06 10:26:58;;;;;;;9.90;2.05;;;;;;;;;;4985502;28;20427;-82
2023/01/06 10:29:30;;;;;;;15.90;2.25;;;9.70;99.90;;;;;;4964630;28;20424;-82
2023/01/06 10:31:58;;;;;;;12.70;2.20;;;9.70;99.90;;;;;;4985030;28;20424;-82
2023/01/06 10:34:26;;;;;;;8.75;2.10;;;9.70;99.90;;;;;;5029639;28;20431;-82
2023/01/06 10:37:01;;;;;;;11.63;1.73;;;;;;;;;;4973675;28;20430;-83
2023/01/06 10:39:28;;;;;;;8.43;2.10;;;;;;;;;;5008671;28;20445;-82
2023/01/06 10:45:11;;;;;;;14.85;2.03;;;;;;;;;;4980240;28;20921;-82
2023/01/06 10:47:39;;;;;;;9.02;2.00;;;;;;;;;;4990610;28;20433;-83
2023/01/06 10:50:05;;;;;;;11.98;1.90;;;;;;;;;;4962603;28;20829;-82
2023/01/06 10:52:32;;;;;;;13.07;2.17;;;;;;;;;;4973793;28;20430;-83
2023/01/06 10:55:04;;;;;;;11.88;1.92;;;10.10;99.90;;;;;;5006573;28;20772;-83
2023/01/06 10:57:33;;;;;;;13.73;2.78;;;;;;;;;;4985684;28;20426;-82
2023/01/06 11:00:21;;;;;;;10.15;2.20;;;;;;;;;;4969185;28;20911;-83
2023/01/06 11:02:48;;;;;;;9.07;2.00;;;;;;;;;;4954624;28;20428;-83
2023/01/06 11:05:18;;;;;;;9.73;2.10;;;;;;;;;;4970257;28;20980;-83
2023/01/06 11:07:46;;;;;;;9.60;1.80;;;;;;;;;;5016816;28;20497;-83
2023/01/06 11:10:22;;;;;;;11.65;2.03;;;;;;;;;;5018289;28;20414;-83
2023/01/06 11:12:48;;;;;;;10.95;2.63;;;;;;;;;;4972738;28;20434;-83
2023/01/06 11:15:20;;;;;;;9.55;2.25;;;;;;;;;;4977541;28;20433;-83
2023/01/06 11:17:47;;;;;;;10.70;2.10;;;;;;;;;;4980625;28;20431;-82
2023/01/06 11:20:13;;;;;;;11.48;2.00;;;;;;;;;;4982165;28;20431;-82
2023/01/06 11:22:40;;;;;;;11.10;2.30;;;;;;;;;;4988562;28;20907;-81
2023/01/06 11:25:19;;;;;;;12.48;2.47;;;;;;;;;;5026998;28;20425;-82
2023/01/06 11:27:48;;;;;;;8.75;2.25;;;;;;;;;;4977272;28;20428;-82
2023/01/06 11:30:25;;;;;;;8.13;1.70;;;;;;;;;;4969525;28;20891;-82
2023/01/06 11:32:51;;;;;;;9.60;1.80;;;;;;;;;;4976299;28;20440;-82
2023/01/06 11:35:21;;;;;;;8.95;1.92;;;;;;;;;;5005935;28;20424;-82
2023/01/06 11:37:47;;;;;;;11.48;2.20;;;;;;;;;;4972439;28;20821;-82
2023/01/06 11:40:20;;;;;;;12.15;2.03;;;;;;;;;;4988029;28;20458;-82
2023/01/06 11:42:51;;;;;;;9.60;1.98;;;;;;;;;;4986964;28;20435;-82
2023/01/06 11:45:30;;;;;;;11.20;2.00;;;;;;;;;;4977205;28;20450;-82
2023/01/06 11:47:56;;;;;;;7.55;1.90;;;;;;;;;;5044576;28;20943;-82
2023/01/06 11:50:22;;;;;;;12.20;2.13;;;;;;;;;;4985165;28;20838;-82
2023/01/06 11:53:01;;;;;;;9.30;2.20;;;;;;;;;;5034211;28;20428;-82
2023/01/06 11:55:29;;;;;;;8.77;1.88;;;;;;;;;;5017742;28;20425;-83
2023/01/06 11:58:07;;;;;;;10.82;1.90;;;;;;;;;;4972686;28;20438;-82
2023/01/06 12:00:58;;;;;;;10.73;2.00;;;10.20;99.90;;;;;;4981477;28;20489;-82
2023/01/06 12:03:30;;;;;;;13.88;2.10;;;;;;;;;;4978491;28;20462;-82
2023/01/06 12:06:04;;;;;;;10.97;2.10;;;10.10;99.90;;;;;;4989396;28;20477;-82
2023/01/06 12:08:36;;;;;;;10.30;2.40;;;;;;;;;;4992304;28;20425;-82
2023/01/06 12:11:19;;;;;;;9.13;1.90;;;10.40;99.90;;;;;;4999240;28;20508;-81
2023/01/06 12:13:45;;;;;;;9.90;2.10;;;;;;;;;;4998298;28;20447;-83
2023/01/06 12:16:22;;;;;;;9.38;1.85;;;10.60;99.90;;;;;;4981312;28;20427;-82
2023/01/06 12:18:49;;;;;;;10.82;2.10;;;;;;;;;;4994348;28;20515;-81
2023/01/06 12:21:18;;;;;;;7.55;1.60;;;;;;;;;;5009728;28;20424;-82
2023/01/06 12:23:45;;;;;;;9.50;2.25;;;;;;;;;;5032601;28;20939;-80
2023/01/06 12:26:17;;;;;;;9.55;1.90;;;10.40;99.90;;;;;;4975862;28;20472;-81
2023/01/06 12:28:45;;;;;;;10.05;1.80;;;;;;;;;;5002109;28;21078;-81
2023/01/06 12:31:19;;;;;;;11.02;1.95;;;;;;;;;;5015524;28;20983;-81
2023/01/06 12:33:45;;;;;;;12.07;2.10;;;;;;;;;;4975184;28;20503;-81
2023/01/06 12:36:15;;;;;;;11.05;2.30;;;;;;;;;;5047331;28;20422;-81
2023/01/06 12:38:57;;;;;;;10.97;2.20;;;;;;;;;;5046443;28;20440;-81
2023/01/06 12:41:27;;;;;;;11.05;2.00;;;;;;;;;;5017600;28;20432;-81
2023/01/06 12:43:58;;;;;;;11.13;2.30;;;;;;;;;;5031337;28;20540;-82
2023/01/06 12:46:30;;;;;;;10.63;2.23;;;;;;;;;;4979245;28;20422;-83
2023/01/06 12:48:59;;;;;;;10.48;1.85;;;;;;;;;;5039721;28;20421;-82
2023/01/06 12:51:34;;;;;;;11.47;2.43;;;9.90;99.90;;;;;;5014466;28;20481;-83
2023/01/06 12:54:14;;;;;;;10.23;2.30;;;;;;;;;;5049171;28;20458;-83
2023/01/06 12:56:49;;;;;;;10.25;1.98;;;;;;;;;;4992770;28;20418;-82
2023/01/06 12:59:22;;;;;;;13.17;2.57;;;;;;;;;;5013704;28;20781;-82
2023/01/06 13:01:51;;;;;;;9.02;1.73;;;;;;;;;;4977081;28;20423;-81
2023/01/06 13:04:26;;;;;;;14.25;1.90;;;;;;;;;;4991132;28;20418;-81
2023/01/06 13:07:10;;;;;;;12.70;2.60;;;;;;;;;;5002215;28;20422;-83
2023/01/06 13:09:40;;;;;;;11.30;1.80;;;;;;;;;;5013508;28;20589;-81
2023/01/06 13:12:15;;;;;;;12.38;2.45;;;;;;;;;;4976940;28;20419;-82
2023/01/06 13:14:47;;;;;;;8.25;2.40;;;;;;;;;;4988837;28;20431;-83
2023/01/06 13:17:27;;;;;;;12.68;2.05;;;9.90;99.90;;;;;;4984386;28;20487;-82
2023/01/06 13:19:54;;;;;;;10.20;2.38;;;;;;;;;;5028743;28;20462;-82
2023/01/06 13:22:26;;;;;;;10.32;2.50;;;;;;;;;;4987795;28;20439;-82
2023/01/06 13:25:02;;;;;;;8.65;2.38;;;;;;;;;;4977772;28;20420;-81
2023/01/06 13:27:34;;;;;;;11.37;2.20;;;;;;;;;;4961005;28;20913;-82
2023/01/06 13:30:06;;;;;;;9.27;2.40;;;;;;;;;;4976371;28;20929;-81
2023/01/06 13:32:35;;;;;;;12.35;2.75;;;;;;;;;;4962264;28;20427;-81
2023/01/06 13:35:01;;;;;;;10.45;2.33;;;;;;;;;;4986487;28;20483;-81
2023/01/06 13:37:35;;;;;;;11.43;2.17;;;;;;;;;;4983530;28;20426;-81
2023/01/06 13:40:05;;;;;;;13.00;2.08;;;;;;;;;;5034145;28;20512;-81
2023/01/06 13:42:35;;;;;;;9.75;1.88;;;;;;;;;;4977431;28;20432;-81
2023/01/06 13:45:01;;;;;;;7.88;1.85;;;;;;;;;;4966410;28;20430;-82
2023/01/06 13:47:29;;;;;;;12.30;2.38;;;;;;;;;;4981334;28;20501;-80
2023/01/06 13:49:57;;;;;;;11.32;2.10;;;;;;;;;;4959822;28;20476;-81
2023/01/06 13:52:27;;;;;;;11.73;2.17;;;9.70;99.90;;;;;;4994565;28;20434;-80
2023/01/06 13:54:53;;;;;;;11.30;2.38;;;;;;;;;;5010051;28;20501;-81
2023/01/06 13:57:22;;;;;;;13.00;2.30;;;;;;;;;;5063216;28;20935;-80
2023/01/06 13:59:52;;;;;;;10.80;2.05;;;;;;;;;;5049908;28;20540;-81
2023/01/06 14:02:33;;;;;;;11.00;2.00;;;;;;;;;;4976263;28;20470;-81
2023/01/06 14:05:01;;;;;;;11.32;2.03;;;;;;;;;;5015934;28;20422;-81
2023/01/06 14:07:47;;;;;;;9.68;2.10;;;9.10;99.90;;;;;;5021468;28;20440;-76
2023/01/06 14:10:32;;;;;;;11.60;2.22;;;9.60;99.90;;;;;;4983652;28;20766;-76
2023/01/06 14:12:59;;;;;;;10.68;2.00;;;;;;;;;;4985475;28;20522;-76
2023/01/06 14:15:28;;;;;;;10.60;2.35;;;;;;;;;;4961956;28;20436;-77
2023/01/06 14:17:54;;;;;;;11.13;2.10;;;;;;;;;;4985365;28;21004;-77
2023/01/06 14:20:23;;;;;;;12.00;2.30;;;;;;;;;;4980642;28;20523;-77
2023/01/06 14:23:00;;;;;;;10.25;2.15;;;;;;;;;;4986059;28;20428;-76
2023/01/06 14:25:26;;;;;;;11.77;2.22;;;;;;;;;;4976442;28;21286;-77
2023/01/06 14:27:52;;;;;;;11.00;2.25;;;;;;;;;;4971644;28;20427;-77
2023/01/06 14:30:20;;;;;;;12.43;2.53;;;;;;;;;;4983190;28;20428;-77
2023/01/06 14:32:49;;;;;;;10.30;2.00;;;;;;;;;;5019801;28;20722;-77
2023/01/06 14:35:16;;;;;;;11.75;2.30;;;;;;;;;;4987304;28;20541;-76
2023/01/06 14:37:55;;;;;;;10.32;2.47;;;;;;;;;;5005128;28;20429;-76